createdAt,value
2022-10-08T00:02:11.588Z,13.88
2022-10-08T00:07:30.482Z,13.99
2022-10-08T00:09:57.206Z,13.95
2022-10-08T00:12:23.765Z,13.94
2022-10-08T00:14:51.466Z,13.88
2022-10-08T00:17:18.260Z,13.83
2022-10-08T00:19:44.850Z,13.75
2022-10-08T00:22:11.681Z,13.71
2022-10-08T00:24:40.194Z,13.59
2022-10-08T00:27:07.430Z,13.50
2022-10-08T00:29:34.244Z,13.46
2022-10-08T00:32:01.421Z,13.40
2022-10-08T00:34:28.579Z,13.36
2022-10-08T00:36:55.777Z,13.32
2022-10-08T00:39:23.531Z,13.31
2022-10-08T00:41:53.353Z,13.29
2022-10-08T00:44:39.093Z,13.32
2022-10-08T00:47:07.726Z,13.39
2022-10-08T00:49:34.887Z,13.41
2022-10-08T00:52:01.751Z,13.51
2022-10-08T00:54:29.668Z,13.44
2022-10-08T00:56:56.457Z,13.44
2022-10-08T00:59:23.208Z,13.48
2022-10-08T01:01:50.853Z,13.54
2022-10-08T01:04:17.489Z,13.63
2022-10-08T01:06:46.697Z,13.65
2022-10-08T01:09:33.822Z,13.67
2022-10-08T01:12:19.128Z,13.68
2022-10-08T01:14:57.245Z,13.68
2022-10-08T01:17:27.013Z,13.68
2022-10-08T01:19:57.452Z,13.67
2022-10-08T01:22:35.849Z,13.63
2022-10-08T01:25:30.465Z,13.60
2022-10-08T01:28:06.998Z,13.59
2022-10-08T01:30:35.602Z,13.61
2022-10-08T01:33:27.535Z,13.58
2022-10-08T01:36:11.113Z,13.46
2022-10-08T01:38:54.949Z,13.50
2022-10-08T01:41:36.875Z,13.40
2022-10-08T01:44:23.276Z,13.35
2022-10-08T01:47:07.361Z,13.31
2022-10-08T01:49:51.709Z,13.19
2022-10-08T01:52:37.077Z,13.09
2022-10-08T01:55:25.079Z,13.05
2022-10-08T01:58:09.494Z,13.04
2022-10-08T02:00:52.193Z,12.90
2022-10-08T02:03:34.033Z,12.85
2022-10-08T02:06:16.216Z,12.84
2022-10-08T02:08:57.792Z,12.79
2022-10-08T02:11:40.136Z,12.77
2022-10-08T02:14:26.603Z,12.73
2022-10-08T02:17:17.851Z,12.63
2022-10-08T02:20:04.214Z,12.63
2022-10-08T02:23:07.214Z,12.54
2022-10-08T02:26:13.507Z,12.46
2022-10-08T02:29:00.806Z,12.43
2022-10-08T02:31:54.890Z,12.40
2022-10-08T02:34:54.473Z,12.46
2022-10-08T02:37:43.349Z,12.37
2022-10-08T02:40:30.555Z,12.36
2022-10-08T02:43:21.767Z,12.31
2022-10-08T02:46:10.385Z,12.30
2022-10-08T02:49:04.898Z,12.31
2022-10-08T02:51:52.011Z,12.31
2022-10-08T02:54:38.486Z,12.27
2022-10-08T02:57:28.075Z,12.35
2022-10-08T03:00:14.393Z,12.26
2022-10-08T03:03:03.662Z,12.27
2022-10-08T03:05:51.245Z,12.34
2022-10-08T03:08:40.016Z,12.39
2022-10-08T03:11:25.768Z,12.44
2022-10-08T03:14:13.760Z,12.31
2022-10-08T03:16:59.110Z,12.39
2022-10-08T03:19:44.778Z,12.45
2022-10-08T03:22:30.573Z,12.40
2022-10-08T03:25:16.191Z,12.47
2022-10-08T03:31:11.099Z,12.47
2022-10-08T03:33:56.694Z,12.49
2022-10-08T03:36:42.678Z,12.53
2022-10-08T03:39:28.328Z,12.49
2022-10-08T03:42:13.813Z,12.49
2022-10-08T03:45:01.667Z,12.47
2022-10-08T03:47:52.905Z,12.47
2022-10-08T03:50:38.338Z,12.45
2022-10-08T03:53:23.999Z,12.44
2022-10-08T03:56:11.762Z,12.41
2022-10-08T03:58:58.883Z,12.42
2022-10-08T04:01:44.639Z,12.37
2022-10-08T04:04:30.725Z,12.35
2022-10-08T04:07:15.854Z,12.35
2022-10-08T04:10:01.987Z,12.36
2022-10-08T04:12:49.105Z,12.30
2022-10-08T04:16:03.624Z,12.24
2022-10-08T04:18:49.053Z,12.17
2022-10-08T04:21:34.388Z,12.13
2022-10-08T04:24:20.052Z,12.05
2022-10-08T04:27:04.927Z,12.03
2022-10-08T04:33:00.094Z,11.96
2022-10-08T04:35:45.527Z,11.91
2022-10-08T04:38:30.907Z,11.87
2022-10-08T04:41:17.741Z,11.89
2022-10-08T04:44:03.434Z,11.85
2022-10-08T04:46:48.611Z,11.87
2022-10-08T04:49:34.218Z,11.86
2022-10-08T04:52:20.607Z,11.84
2022-10-08T04:55:06.274Z,11.81
2022-10-08T04:57:51.991Z,11.76
2022-10-08T05:00:37.490Z,11.75
2022-10-08T05:03:23.016Z,11.76
2022-10-08T05:06:09.507Z,11.78
2022-10-08T05:08:55.702Z,11.74
2022-10-08T05:11:41.142Z,11.75
2022-10-08T05:14:26.527Z,11.75
2022-10-08T05:17:12.320Z,11.74
2022-10-08T05:19:57.625Z,11.72
2022-10-08T05:22:43.317Z,11.76
2022-10-08T05:28:02.282Z,11.81
2022-10-08T05:33:57.534Z,11.91
2022-10-08T05:36:42.698Z,11.96
2022-10-08T05:39:28.259Z,12.05
2022-10-08T05:42:13.715Z,12.14
2022-10-08T05:44:59.417Z,12.21
2022-10-08T05:47:46.712Z,12.30
2022-10-08T05:53:42.656Z,12.68
2022-10-08T05:56:28.445Z,12.85
2022-10-08T05:59:21.529Z,12.94
2022-10-08T06:02:07.319Z,13.22
2022-10-08T06:04:52.400Z,13.25
2022-10-08T06:07:38.541Z,13.28
2022-10-08T06:10:24.731Z,13.43
2022-10-08T06:13:10.424Z,13.60
2022-10-08T06:15:56.923Z,13.81
2022-10-08T06:18:42.342Z,14.13
2022-10-08T06:21:27.892Z,14.25
2022-10-08T06:24:13.740Z,14.58
2022-10-08T06:26:59.198Z,14.93
2022-10-08T06:29:44.450Z,15.14
2022-10-08T06:32:29.871Z,15.54
2022-10-08T06:35:16.130Z,15.64
2022-10-08T06:38:02.449Z,15.50
2022-10-08T06:40:48.115Z,15.47
2022-10-08T06:43:35.235Z,15.29
2022-10-08T06:46:20.825Z,15.10
2022-10-08T06:49:07.175Z,15.36
2022-10-08T06:51:52.340Z,15.58
2022-10-08T06:54:37.679Z,15.87
2022-10-08T06:57:23.692Z,16.19
2022-10-08T07:00:09.449Z,16.51
2022-10-08T07:02:56.319Z,16.64
2022-10-08T07:05:43.284Z,16.57
2022-10-08T07:08:29.331Z,16.30
2022-10-08T07:11:15.853Z,16.14
2022-10-08T07:14:01.756Z,16.21
2022-10-08T07:16:47.661Z,16.29
2022-10-08T07:19:34.287Z,16.52
2022-10-08T07:22:19.534Z,16.54
2022-10-08T07:25:06.258Z,16.76
2022-10-08T07:27:51.804Z,16.78
2022-10-08T07:30:37.046Z,17.13
2022-10-08T07:33:22.938Z,17.43
2022-10-08T07:36:13.034Z,17.35
2022-10-08T07:39:03.206Z,17.16
2022-10-08T07:41:49.663Z,17.42
2022-10-08T07:44:35.210Z,17.33
2022-10-08T07:47:21.042Z,17.46
2022-10-08T07:50:31.364Z,17.25
2022-10-08T07:56:26.394Z,17.26
2022-10-08T07:59:16.115Z,17.47
2022-10-08T08:02:02.063Z,17.63
2022-10-08T08:04:47.390Z,18.21
2022-10-08T08:07:32.464Z,17.95
2022-10-08T08:10:17.633Z,18.01
2022-10-08T08:13:31.773Z,17.82
2022-10-08T08:16:21.209Z,17.91
2022-10-08T08:19:07.459Z,18.21
2022-10-08T08:21:53.272Z,18.59
2022-10-08T08:24:38.419Z,18.84
2022-10-08T08:27:23.838Z,18.66
2022-10-08T08:30:09.455Z,18.59
2022-10-08T08:32:55.140Z,18.20
2022-10-08T08:36:05.310Z,17.92
2022-10-08T08:38:51.209Z,17.86
2022-10-08T08:41:49.355Z,17.92
2022-10-08T08:44:39.793Z,18.26
2022-10-08T08:47:36.846Z,18.53
2022-10-08T08:50:25.024Z,18.61
2022-10-08T08:53:11.136Z,18.89
2022-10-08T08:55:58.735Z,18.70
2022-10-08T08:58:58.994Z,18.59
2022-10-08T09:01:46.748Z,18.77
2022-10-08T09:04:45.085Z,18.84
2022-10-08T09:07:36.649Z,18.96
2022-10-08T09:10:24.253Z,19.12
2022-10-08T09:13:19.689Z,19.23
2022-10-08T09:16:06.018Z,19.12
2022-10-08T09:18:51.865Z,18.87
2022-10-08T09:21:37.445Z,18.85
2022-10-08T09:24:22.814Z,18.98
2022-10-08T09:27:13.359Z,19.06
2022-10-08T09:29:58.937Z,18.88
2022-10-08T09:32:44.644Z,18.71
2022-10-08T09:35:31.791Z,18.57
2022-10-08T09:38:37.526Z,18.56
2022-10-08T09:41:24.992Z,18.54
2022-10-08T09:44:12.360Z,18.41
2022-10-08T09:47:12.190Z,18.28
2022-10-08T09:50:16.606Z,18.36
2022-10-08T09:53:02.653Z,18.44
2022-10-08T09:55:49.661Z,18.41
2022-10-08T09:58:56.450Z,18.33
2022-10-08T10:01:45.354Z,18.50
2022-10-08T10:04:33.804Z,18.47
2022-10-08T10:07:19.180Z,18.64
2022-10-08T10:10:10.368Z,18.78
2022-10-08T10:13:06.912Z,18.85
2022-10-08T10:15:53.854Z,18.93
2022-10-08T10:18:48.051Z,19.03
2022-10-08T10:22:01.414Z,18.95
2022-10-08T10:24:56.730Z,18.99
2022-10-08T10:27:44.104Z,19.14
2022-10-08T10:30:30.170Z,19.07
2022-10-08T10:33:18.749Z,19.04
2022-10-08T10:36:06.392Z,19.07
2022-10-08T10:38:55.864Z,19.23
2022-10-08T10:41:51.204Z,19.26
2022-10-08T10:45:19.447Z,19.27
2022-10-08T10:48:08.269Z,19.29
2022-10-08T10:51:00.400Z,19.27
2022-10-08T10:53:52.982Z,19.31
2022-10-08T10:56:39.445Z,19.35
2022-10-08T10:59:39.915Z,19.34
2022-10-08T11:05:35.566Z,19.31
2022-10-08T11:08:21.751Z,19.33
2022-10-08T11:11:29.573Z,19.33
2022-10-08T11:14:23.514Z,19.25
2022-10-08T11:17:33.971Z,19.22
2022-10-08T11:20:40.063Z,19.22
2022-10-08T11:23:51.945Z,19.21
2022-10-08T11:26:56.719Z,19.20
2022-10-08T11:30:03.784Z,19.21
2022-10-08T11:32:54.509Z,19.26
2022-10-08T11:35:47.485Z,19.23
2022-10-08T11:38:42.037Z,19.21
2022-10-08T11:41:32.298Z,19.10
2022-10-08T11:44:17.962Z,19.15
2022-10-08T11:47:22.309Z,19.12
2022-10-08T11:50:23.016Z,19.12
2022-10-08T11:53:13.126Z,19.15
2022-10-08T11:55:59.066Z,19.19
2022-10-08T11:58:52.898Z,19.27
2022-10-08T12:01:55.276Z,19.28
2022-10-08T12:05:17.473Z,19.41
2022-10-08T12:08:04.157Z,19.43
2022-10-08T12:10:50.657Z,19.46
2022-10-08T12:13:36.553Z,19.49
2022-10-08T12:16:22.034Z,19.52
2022-10-08T12:22:36.992Z,19.52
2022-10-08T12:25:33.372Z,19.62
2022-10-08T12:28:21.884Z,19.74
2022-10-08T12:31:16.307Z,19.81
2022-10-08T12:34:14.655Z,19.88
2022-10-08T12:37:12.530Z,19.95
2022-10-08T12:40:09.363Z,20.03
2022-10-08T12:43:02.990Z,20.10
2022-10-08T12:45:51.921Z,20.11
2022-10-08T12:48:45.449Z,20.14
2022-10-08T12:51:47.335Z,20.06
2022-10-08T12:54:33.479Z,20.04
2022-10-08T12:57:39.219Z,20.04
2022-10-08T13:00:26.227Z,20.00
2022-10-08T13:03:16.461Z,20.09
2022-10-08T13:06:14.596Z,20.18
2022-10-08T13:09:00.278Z,20.23
2022-10-08T13:12:10.768Z,20.25
2022-10-08T13:15:09.410Z,20.31
2022-10-08T13:17:55.063Z,20.41
2022-10-08T13:21:08.274Z,20.45
2022-10-08T13:23:53.492Z,20.49
2022-10-08T13:26:43.833Z,20.51
2022-10-08T13:29:30.454Z,20.54
2022-10-08T13:32:21.266Z,20.52
2022-10-08T13:35:32.680Z,20.54
2022-10-08T13:38:21.028Z,20.55
2022-10-08T13:41:23.918Z,20.52
2022-10-08T13:44:09.656Z,20.53
2022-10-08T13:46:58.921Z,20.48
2022-10-08T13:49:47.482Z,20.39
2022-10-08T13:55:44.666Z,20.36
2022-10-08T13:58:30.052Z,20.38
2022-10-08T14:01:15.439Z,20.38
2022-10-08T14:04:00.569Z,20.30
2022-10-08T14:06:49.023Z,20.25
2022-10-08T14:09:34.435Z,20.21
2022-10-08T14:12:23.163Z,20.16
2022-10-08T14:15:10.047Z,20.06
2022-10-08T14:17:56.220Z,19.94
2022-10-08T14:20:41.526Z,19.90
2022-10-08T14:23:27.318Z,19.85
2022-10-08T14:26:37.100Z,19.82
2022-10-08T14:29:23.361Z,19.83
2022-10-08T14:32:32.997Z,19.83
2022-10-08T14:35:18.555Z,19.84
2022-10-08T14:38:03.927Z,19.84
2022-10-08T14:40:49.814Z,19.86
2022-10-08T14:43:35.070Z,19.86
2022-10-08T14:46:20.962Z,19.88
2022-10-08T14:49:07.028Z,19.90
2022-10-08T14:51:53.146Z,19.91
2022-10-08T14:54:38.631Z,19.91
2022-10-08T14:57:23.805Z,19.92
2022-10-08T15:00:10.121Z,19.93
2022-10-08T15:02:55.352Z,19.92
2022-10-08T15:05:40.776Z,19.87
2022-10-08T15:08:26.396Z,19.82
2022-10-08T15:11:12.580Z,19.78
2022-10-08T15:13:59.533Z,19.71
2022-10-08T15:16:45.318Z,19.61
2022-10-08T15:19:31.203Z,19.55
2022-10-08T15:22:16.644Z,19.52
2022-10-08T15:25:02.505Z,19.50
2022-10-08T15:27:48.168Z,19.47
2022-10-08T15:30:34.764Z,19.44
2022-10-08T15:33:20.150Z,19.36
2022-10-08T15:36:26.560Z,19.31
2022-10-08T15:39:16.101Z,19.23
2022-10-08T15:42:01.652Z,19.16
2022-10-08T15:44:47.543Z,19.09
2022-10-08T15:47:33.369Z,19.04
2022-10-08T15:53:32.815Z,18.92
2022-10-08T15:56:18.500Z,18.85
2022-10-08T15:59:04.763Z,18.76
2022-10-08T16:01:50.213Z,18.68
2022-10-08T16:04:35.477Z,18.61
2022-10-08T16:07:21.458Z,18.52
2022-10-08T16:10:06.776Z,18.47
2022-10-08T16:12:52.105Z,18.41
2022-10-08T16:16:02.418Z,18.36
2022-10-08T16:18:51.229Z,18.32
2022-10-08T16:21:37.403Z,18.27
2022-10-08T16:24:23.509Z,18.21
2022-10-08T16:27:09.052Z,18.15
2022-10-08T16:30:19.633Z,18.10
2022-10-08T16:33:05.595Z,18.06
2022-10-08T16:35:51.469Z,17.99
2022-10-08T16:38:40.882Z,17.96
2022-10-08T16:41:27.515Z,17.90
2022-10-08T16:44:14.606Z,17.82
2022-10-08T16:46:59.693Z,17.76
2022-10-08T16:49:44.616Z,17.71
2022-10-08T16:52:30.303Z,17.66
2022-10-08T16:55:15.488Z,17.59
2022-10-08T16:58:01.134Z,17.54
2022-10-08T17:00:47.635Z,17.46
2022-10-08T17:03:32.866Z,17.42
2022-10-08T17:06:18.954Z,17.36
2022-10-08T17:09:04.543Z,17.30
2022-10-08T17:11:50.289Z,17.24
2022-10-08T17:14:37.898Z,17.18
2022-10-08T17:17:23.111Z,17.09
2022-10-08T17:20:08.866Z,17.05
2022-10-08T17:22:53.919Z,17.00
2022-10-08T17:25:39.412Z,16.94
2022-10-08T17:28:28.764Z,16.90
2022-10-08T17:31:17.329Z,16.86
2022-10-08T17:34:04.159Z,16.83
2022-10-08T17:36:52.451Z,16.82
2022-10-08T17:39:37.723Z,16.81
2022-10-08T17:42:23.697Z,16.78
2022-10-08T17:45:09.862Z,16.75
2022-10-08T17:47:55.265Z,16.70
2022-10-08T17:50:40.776Z,16.67
2022-10-08T17:53:26.570Z,16.64
2022-10-08T17:56:13.482Z,16.60
2022-10-08T17:58:58.706Z,16.55
2022-10-08T18:01:45.798Z,16.52
2022-10-08T18:04:31.891Z,16.51
2022-10-08T18:07:17.165Z,16.49
2022-10-08T18:10:02.469Z,16.45
2022-10-08T18:12:48.688Z,16.43
2022-10-08T18:15:36.857Z,16.39
2022-10-08T18:18:22.124Z,16.35
2022-10-08T18:21:08.349Z,16.30
2022-10-08T18:23:53.530Z,16.29
2022-10-08T18:26:39.527Z,16.26
2022-10-08T18:29:24.891Z,16.20
2022-10-08T18:35:19.916Z,16.11
2022-10-08T18:38:05.769Z,16.09
2022-10-08T18:40:51.272Z,16.06
2022-10-08T18:43:36.765Z,16.02
2022-10-08T18:46:22.955Z,15.99
2022-10-08T18:49:12.389Z,15.96
2022-10-08T18:51:58.091Z,15.93
2022-10-08T18:54:43.890Z,15.87
2022-10-08T18:57:29.396Z,15.84
2022-10-08T19:00:15.520Z,15.82
2022-10-08T19:03:01.305Z,15.78
2022-10-08T19:05:46.678Z,15.75
2022-10-08T19:08:32.872Z,15.73
2022-10-08T19:11:22.992Z,15.70
2022-10-08T19:14:10.676Z,15.70
2022-10-08T19:16:56.057Z,15.70
2022-10-08T19:19:41.241Z,15.71
2022-10-08T19:22:26.412Z,15.71
2022-10-08T19:25:11.406Z,15.70
2022-10-08T19:27:57.581Z,15.68
2022-10-08T19:30:43.884Z,15.65
2022-10-08T19:33:30.528Z,15.65
2022-10-08T19:36:16.259Z,15.65
2022-10-08T19:39:05.094Z,15.66
2022-10-08T19:42:16.032Z,15.66
2022-10-08T19:45:02.937Z,15.68
2022-10-08T19:47:49.068Z,15.67
2022-10-08T19:50:35.402Z,15.68
2022-10-08T19:53:22.366Z,15.67
2022-10-08T19:56:08.460Z,15.66
2022-10-08T19:59:18.663Z,15.66
2022-10-08T20:02:03.887Z,15.65
2022-10-08T20:04:49.567Z,15.63
2022-10-08T20:07:35.839Z,15.62
2022-10-08T20:10:21.575Z,15.57
2022-10-08T20:13:06.868Z,15.54
2022-10-08T20:15:52.708Z,15.49
2022-10-08T20:18:38.513Z,15.47
2022-10-08T20:21:24.447Z,15.43
2022-10-08T20:24:10.440Z,15.43
2022-10-08T20:26:55.473Z,15.42
2022-10-08T20:29:40.976Z,15.40
2022-10-08T20:32:27.501Z,15.39
2022-10-08T20:35:13.159Z,15.37
2022-10-08T20:37:58.903Z,15.36
2022-10-08T20:40:43.996Z,15.34
2022-10-08T20:43:30.688Z,15.37
2022-10-08T20:46:19.034Z,15.39
2022-10-08T20:49:05.295Z,15.44
2022-10-08T20:51:50.948Z,15.51
2022-10-08T20:57:46.625Z,15.59
2022-10-08T21:00:32.510Z,15.58
2022-10-08T21:03:18.921Z,15.55
2022-10-08T21:06:05.017Z,15.53
2022-10-08T21:08:51.564Z,15.54
2022-10-08T21:11:37.218Z,15.52
2022-10-08T21:14:22.729Z,15.51
2022-10-08T21:17:08.481Z,15.52
2022-10-08T21:19:54.337Z,15.54
2022-10-08T21:22:40.812Z,15.54
2022-10-08T21:25:25.937Z,15.57
2022-10-08T21:28:14.544Z,15.57
2022-10-08T21:31:03.932Z,15.58
2022-10-08T21:33:53.193Z,15.55
2022-10-08T21:37:03.718Z,15.52
2022-10-08T21:39:53.373Z,15.54
2022-10-08T21:42:38.521Z,15.54
2022-10-08T21:45:24.725Z,15.60
2022-10-08T21:48:11.446Z,15.63
2022-10-08T21:50:57.356Z,15.69
2022-10-08T21:53:46.507Z,15.74
2022-10-08T21:56:59.613Z,15.78
2022-10-08T21:59:45.689Z,15.79
2022-10-08T22:02:30.998Z,15.82
2022-10-08T22:05:16.702Z,15.90
2022-10-08T22:08:01.905Z,15.95
2022-10-08T22:10:48.136Z,16.05
2022-10-08T22:13:33.847Z,16.12
2022-10-08T22:16:20.269Z,16.21
2022-10-08T22:19:06.124Z,16.27
2022-10-08T22:21:51.670Z,16.33
2022-10-08T22:24:38.023Z,16.38
2022-10-08T22:27:23.964Z,16.42
2022-10-08T22:30:09.928Z,16.44
2022-10-08T22:32:54.940Z,16.46
2022-10-08T22:35:41.244Z,16.47
2022-10-08T22:38:27.734Z,16.44
2022-10-08T22:41:14.999Z,16.34
2022-10-08T22:44:00.891Z,16.27
2022-10-08T22:46:46.566Z,16.17
2022-10-08T22:49:31.953Z,16.15
2022-10-08T22:52:17.882Z,16.09
2022-10-08T22:55:03.145Z,16.06
2022-10-08T22:57:48.738Z,16.05
2022-10-08T23:00:34.313Z,16.04
2022-10-08T23:03:44.943Z,16.07
2022-10-08T23:06:32.017Z,16.06
2022-10-08T23:09:17.398Z,16.11
2022-10-08T23:12:02.913Z,16.12
2022-10-08T23:14:48.365Z,16.14
2022-10-08T23:17:34.358Z,16.16
2022-10-08T23:20:19.611Z,16.25
2022-10-08T23:23:05.478Z,16.21
2022-10-08T23:25:57.145Z,16.27
2022-10-08T23:28:44.322Z,16.26
2022-10-08T23:31:34.062Z,16.28
2022-10-08T23:34:19.244Z,16.31
2022-10-08T23:37:04.807Z,16.30
2022-10-08T23:39:54.371Z,16.30
2022-10-08T23:42:42.498Z,16.29
2022-10-08T23:45:28.473Z,16.28
2022-10-08T23:48:13.905Z,16.26
2022-10-08T23:50:59.297Z,16.25
2022-10-08T23:53:45.172Z,16.24
2022-10-08T23:56:30.549Z,16.18
2022-10-08T23:59:16.195Z,16.15
